createdAt,value
2018-12-03T00:07:52.001Z,89.23
2018-12-03T00:18:10.472Z,89.12
2018-12-03T00:28:30.468Z,89.82
2018-12-03T00:38:48.684Z,89.07
2018-12-03T00:49:08.222Z,89.54
2018-12-03T00:59:26.909Z,90.39
2018-12-03T01:09:46.055Z,90.66
2018-12-03T01:20:07.431Z,90.75
2018-12-03T01:30:26.653Z,90.29
2018-12-03T01:40:44.852Z,89.63
2018-12-03T01:51:02.933Z,89.54
2018-12-03T02:01:21.499Z,90.60
2018-12-03T02:11:41.062Z,90.73
2018-12-03T02:21:59.469Z,90.44
2018-12-03T02:32:17.922Z,90.14
2018-12-03T02:42:36.174Z,89.60
2018-12-03T02:52:54.687Z,90.01
2018-12-03T03:03:14.089Z,90.33
2018-12-03T03:13:32.832Z,90.42
2018-12-03T03:23:52.211Z,90.21
2018-12-03T03:34:11.722Z,90.27
2018-12-03T03:44:30.725Z,91.10
2018-12-03T03:54:51.945Z,91.32
2018-12-03T04:05:15.050Z,91.37
2018-12-03T04:15:32.998Z,91.05
2018-12-03T04:25:56.134Z,90.62
2018-12-03T04:36:14.017Z,90.45
2018-12-03T04:46:32.703Z,90.41
2018-12-03T04:56:51.276Z,90.38
2018-12-03T05:07:10.204Z,90.20
2018-12-03T05:17:29.669Z,90.50
2018-12-03T05:27:48.759Z,90.27
2018-12-03T05:38:09.900Z,90.48
2018-12-03T05:48:28.727Z,90.46
2018-12-03T05:58:47.099Z,90.80
2018-12-03T06:09:08.224Z,91.39
2018-12-03T06:19:27.002Z,91.12
2018-12-03T06:29:46.157Z,91.00
2018-12-03T06:40:09.999Z,91.24
2018-12-03T06:50:31.436Z,91.34
2018-12-03T07:00:50.124Z,91.76
2018-12-03T07:11:09.843Z,91.52
2018-12-03T07:21:29.338Z,91.15
2018-12-03T07:31:50.645Z,90.57
2018-12-03T07:42:09.295Z,91.05
2018-12-03T07:52:28.163Z,90.77
2018-12-03T08:02:47.576Z,90.35
2018-12-03T08:13:08.532Z,90.27
2018-12-03T08:24:00.313Z,90.27
2018-12-03T08:34:28.875Z,91.05
2018-12-03T08:44:47.313Z,90.99
2018-12-03T08:55:09.766Z,90.85
2018-12-03T09:05:30.178Z,90.78
2018-12-03T09:15:59.108Z,89.96
2018-12-03T09:26:18.724Z,89.46
2018-12-03T09:36:37.292Z,89.77
2018-12-03T09:46:56.028Z,87.06
2018-12-03T09:57:14.674Z,87.63
2018-12-03T10:07:33.708Z,85.45
2018-12-03T10:17:52.630Z,85.45
2018-12-03T10:28:12.030Z,86.07
2018-12-03T10:38:33.542Z,84.56
2018-12-03T10:48:52.960Z,84.56
2018-12-03T10:59:11.438Z,85.30
2018-12-03T11:09:33.037Z,87.39
2018-12-03T11:19:49.931Z,83.74
2018-12-03T11:30:11.479Z,81.35
2018-12-03T11:40:51.629Z,78.12
2018-12-03T11:51:10.400Z,74.44
2018-12-03T12:01:28.848Z,72.57
2018-12-03T12:11:49.079Z,77.48
2018-12-03T12:22:07.873Z,74.55
2018-12-03T12:32:25.953Z,77.10
2018-12-03T12:42:48.262Z,77.73
2018-12-03T12:53:07.507Z,77.96
2018-12-03T13:03:25.894Z,77.00
2018-12-03T13:13:45.772Z,77.46
2018-12-03T13:24:05.483Z,76.24
2018-12-03T13:34:24.309Z,76.17
2018-12-03T13:44:44.199Z,79.01
2018-12-03T13:55:03.458Z,80.55
2018-12-03T14:05:22.513Z,80.18
2018-12-03T14:16:04.237Z,81.29
2018-12-03T14:26:24.924Z,82.57
2018-12-03T14:36:44.397Z,82.95
2018-12-03T14:47:03.314Z,83.40
2018-12-03T14:57:22.558Z,86.14
2018-12-03T15:07:41.634Z,87.12
2018-12-03T15:18:00.712Z,87.08
2018-12-03T15:28:19.371Z,89.08
2018-12-03T15:38:38.123Z,89.63
2018-12-03T15:48:58.077Z,89.31
2018-12-03T15:59:17.244Z,89.81
2018-12-03T16:09:35.801Z,89.78
2018-12-03T16:19:54.757Z,90.31
2018-12-03T16:30:22.013Z,90.63
2018-12-03T16:40:41.327Z,90.59
2018-12-03T16:51:12.510Z,90.48
2018-12-03T17:01:30.266Z,90.86
2018-12-03T17:11:51.882Z,91.13
2018-12-03T17:22:25.862Z,91.20
2018-12-03T17:32:48.765Z,91.08
2018-12-03T17:43:08.866Z,91.30
2018-12-03T17:53:29.544Z,91.15
2018-12-03T18:03:50.532Z,91.72
2018-12-03T18:14:14.280Z,92.39
2018-12-03T18:24:34.843Z,91.91
2018-12-03T18:34:58.661Z,91.46
2018-12-03T18:45:18.869Z,91.26
2018-12-03T18:55:39.813Z,91.48
2018-12-03T19:06:01.981Z,91.35
2018-12-03T19:16:21.311Z,91.50
2018-12-03T19:26:47.371Z,91.59
2018-12-03T19:37:07.578Z,91.69
2018-12-03T19:47:28.755Z,91.39
2018-12-03T19:57:58.245Z,90.17
2018-12-03T20:08:19.071Z,91.12
2018-12-03T20:18:41.001Z,90.82
2018-12-03T20:29:29.037Z,91.78
2018-12-03T20:40:34.048Z,90.33
2018-12-03T20:51:06.546Z,90.48
2018-12-03T21:01:28.641Z,90.09
2018-12-03T21:11:51.785Z,90.28
2018-12-03T21:22:12.804Z,90.25
2018-12-03T21:32:32.841Z,90.98
2018-12-03T21:42:53.648Z,91.00
2018-12-03T21:53:14.083Z,90.82
2018-12-03T22:03:35.751Z,90.79
2018-12-03T22:13:55.023Z,90.63
2018-12-03T22:24:13.990Z,90.35
2018-12-03T22:34:35.048Z,91.12
2018-12-03T22:44:57.574Z,92.22
2018-12-03T22:55:14.872Z,92.17
2018-12-03T23:05:33.848Z,92.62
2018-12-03T23:15:52.748Z,92.46
2018-12-03T23:26:13.641Z,92.12
2018-12-03T23:36:31.840Z,91.66
2018-12-03T23:46:51.421Z,91.50
2018-12-03T23:57:09.950Z,91.54
